Time;durP1;ratioP1;P1;durP2;ratioP2;P2;SDS_P1;SDS_P2;PMS_P1;PMS_P2;Temp;Humidity;BMP_temperature;BMP_pressure;BME280_temperature;BME280_humidity;BME280_pressure;Samples;Min_cycle;Max_cycle;Signal;HPM_P1;HPM_P2
2023/12/22 00:00:47;;;;;;;;;8.67;3.33;;;;;;;;5099703;27;46002;-72
2023/12/22 00:03:12;;;;;;;;;2.33;2.33;;;;;;;;5099808;27;46129;-72
2023/12/22 00:05:38;;;;;;;;;5.33;3.00;;;;;;;;5099722;27;45345;-73
2023/12/22 00:08:03;;;;;;;;;5.67;2.00;;;;;;;;5099413;27;46011;-73
2023/12/22 00:10:29;;;;;;;;;3.00;2.00;;;;;;;;5099390;27;45489;-73
2023/12/22 00:12:55;;;;;;;;;5.00;3.00;;;;;;;;5099626;27;45327;-71
2023/12/22 00:15:20;;;;;;;;;3.00;2.67;;;;;;;;5099565;27;45307;-71
2023/12/22 00:17:46;;;;;;;;;5.00;3.00;;;;;;;;5098777;27;45431;-71
2023/12/22 00:20:13;;;;;;;;;2.67;2.00;;;;;;;;5099315;27;45376;-71
2023/12/22 00:22:38;;;;;;;;;3.00;2.33;;;;;;;;5099827;27;45423;-71
2023/12/22 00:25:04;;;;;;;;;3.00;2.00;;;;;;;;5098942;27;45437;-71
2023/12/22 00:27:29;;;;;;;;;2.67;1.00;;;;;;;;5099213;27;45379;-71
2023/12/22 00:29:54;;;;;;;;;5.00;2.00;;;;;;;;5099864;27;45210;-71
2023/12/22 00:32:20;;;;;;;;;5.67;3.67;;;;;;;;5099532;27;45290;-71
2023/12/22 00:34:45;;;;;;;;;4.00;2.00;;;;;;;;5100071;27;45330;-71
2023/12/22 00:37:12;;;;;;;;;3.00;2.00;;;;;;;;5099539;27;45405;-71
2023/12/22 00:39:37;;;;;;;;;4.00;2.00;;;;;;;;5099646;27;45544;-71
2023/12/22 00:42:04;;;;;;;;;4.33;2.00;;;;;;;;5099262;27;45566;-71
2023/12/22 00:44:29;;;;;;;;;4.00;2.00;;;;;;;;5100437;27;45493;-71
2023/12/22 00:46:55;;;;;;;;;6.33;3.00;;;;;;;;5099786;27;45339;-71
2023/12/22 00:49:21;;;;;;;;;5.00;3.00;;;;;;;;5099494;27;45343;-71
2023/12/22 00:51:47;;;;;;;;;3.00;2.33;;;;;;;;5099749;27;45464;-71
2023/12/22 00:54:12;;;;;;;;;4.33;2.00;;;;;;;;5099616;27;45412;-71
2023/12/22 00:56:38;;;;;;;;;2.67;1.00;;;;;;;;5099443;27;45419;-70
2023/12/22 00:59:03;;;;;;;;;5.33;2.00;;;;;;;;5099541;27;45386;-71
2023/12/22 01:01:28;;;;;;;;;6.67;2.67;;;;;;;;5099811;27;45397;-71
2023/12/22 01:03:54;;;;;;;;;2.33;2.33;;;;;;;;5098481;27;45458;-71
2023/12/22 01:06:19;;;;;;;;;2.00;1.33;;;;;;;;5099208;27;45286;-71
2023/12/22 01:08:44;;;;;;;;;4.00;3.00;;;;;;;;5099366;27;45305;-71
2023/12/22 01:11:10;;;;;;;;;2.67;2.00;;;;;;;;5099418;27;45573;-71
2023/12/22 01:13:35;;;;;;;;;2.33;2.00;;;;;;;;5099454;27;45457;-71
2023/12/22 01:16:00;;;;;;;;;2.67;1.00;;;;;;;;5099420;27;45421;-71
2023/12/22 01:18:29;;;;;;;;;2.67;2.00;;;;;;;;5099000;27;45225;-71
2023/12/22 01:20:54;;;;;;;;;2.00;1.00;;;;;;;;5099256;27;45250;-72
2023/12/22 01:23:19;;;;;;;;;3.33;1.33;;;;;;;;5099300;27;45487;-71
2023/12/22 01:25:45;;;;;;;;;1.33;1.00;;;;;;;;5099014;27;46055;-71
2023/12/22 01:28:10;;;;;;;;;3.00;1.00;;;;;;;;5098883;27;45324;-71
2023/12/22 01:30:35;;;;;;;;;1.00;1.00;;;;;;;;5099002;27;45547;-71
2023/12/22 01:33:01;;;;;;;;;4.00;1.00;;;;;;;;5099515;27;45380;-71
2023/12/22 01:35:26;;;;;;;;;4.67;1.00;;;;;;;;5098808;27;46046;-71
2023/12/22 01:37:51;;;;;;;;;1.33;1.00;;;;;;;;5098831;27;45277;-71
2023/12/22 01:40:17;;;;;;;;;4.33;0.67;;;;;;;;5099090;27;45522;-71
2023/12/22 01:42:42;;;;;;;;;4.33;2.33;;;;;;;;5099044;27;45482;-71
2023/12/22 01:45:08;;;;;;;;;3.00;2.00;;;;;;;;5098658;27;45949;-71
2023/12/22 01:47:34;;;;;;;;;4.33;2.00;;;;;;;;5098887;27;45323;-71
2023/12/22 01:50:00;;;;;;;;;2.00;1.33;;;;;;;;5099108;27;45342;-71
2023/12/22 01:52:26;;;;;;;;;2.00;1.00;;;;;;;;5098932;27;45444;-71
2023/12/22 01:54:51;;;;;;;;;6.00;1.67;;;;;;;;5098311;27;45504;-71
2023/12/22 01:57:18;;;;;;;;;2.00;1.00;;;;;;;;5098374;27;45168;-71
2023/12/22 01:59:45;;;;;;;;;1.00;0.33;;;;;;;;5098567;27;45506;-71
2023/12/22 02:02:10;;;;;;;;;4.00;1.33;;;;;;;;5098629;27;45276;-71
2023/12/22 02:04:36;;;;;;;;;1.33;0.00;;;;;;;;5098129;27;46126;-71
2023/12/22 02:07:01;;;;;;;;;2.00;1.67;;;;;;;;5098721;27;45276;-71
2023/12/22 02:09:27;;;;;;;;;2.00;1.00;;;;;;;;5098632;27;45404;-71
2023/12/22 02:11:52;;;;;;;;;0.00;0.00;;;;;;;;5098612;27;45480;-71
2023/12/22 02:14:17;;;;;;;;;0.00;0.00;;;;;;;;5098014;27;46030;-71
2023/12/22 02:16:51;;;;;;;;;1.00;0.00;;;;;;;;5098304;27;45254;-71
2023/12/22 02:19:35;;;;;;;;;0.00;0.00;;;;;;;;5098339;27;45506;-71
2023/12/22 02:22:02;;;;;;;;;0.00;0.00;;;;;;;;5098811;27;45312;-71
2023/12/22 02:24:28;;;;;;;;;0.00;0.00;;;;;;;;5097064;27;45364;-73
2023/12/22 02:26:55;;;;;;;;;0.00;0.00;;;;;;;;5097643;27;45298;-73
2023/12/22 02:29:22;;;;;;;;;1.00;0.00;;;;;;;;5097668;27;45474;-74
2023/12/22 02:31:49;;;;;;;;;1.33;0.00;;;;;;;;5097388;27;45541;-73
2023/12/22 02:34:21;;;;;;;;;1.00;0.00;;;;;;;;5097219;27;45597;-71
2023/12/22 02:36:47;;;;;;;;;0.00;0.00;;;;;;;;5097814;27;45444;-71
2023/12/22 02:39:14;;;;;;;;;2.00;0.00;;;;;;;;5097149;27;45482;-72
2023/12/22 02:41:39;;;;;;;;;0.00;0.00;;;;;;;;5077102;27;45388;-72
2023/12/22 02:44:05;;;;;;;;;1.67;0.00;;;;;;;;5077277;27;45404;-71
2023/12/22 02:46:30;;;;;;;;;4.00;3.00;;;;;;;;5077357;27;45489;-71
2023/12/22 02:48:56;;;;;;;;;2.00;2.00;;;;;;;;5077710;27;45347;-71
2023/12/22 02:51:21;;;;;;;;;1.00;1.00;;;;;;;;5077692;27;45354;-71
2023/12/22 02:53:46;;;;;;;;;0.00;0.00;;;;;;;;5077236;27;46185;-71
2023/12/22 02:56:12;;;;;;;;;0.00;0.00;;;;;;;;5077456;27;45401;-71
2023/12/22 02:58:37;;;;;;;;;1.00;0.00;;;;;;;;5077470;27;45258;-72
2023/12/22 03:01:02;;;;;;;;;0.00;0.00;;;;;;;;5078013;27;45318;-71
2023/12/22 03:03:28;;;;;;;;;0.00;0.00;;;;;;;;5077355;27;45499;-73
2023/12/22 03:05:53;;;;;;;;;0.00;0.00;;;;;;;;5077255;27;45439;-73
2023/12/22 03:08:19;;;;;;;;;0.00;0.00;;;;;;;;5077172;27;45394;-73
2023/12/22 03:10:44;;;;;;;;;0.00;0.00;;;;;;;;5077409;27;45405;-73
2023/12/22 03:13:10;;;;;;;;;0.00;0.00;;;;;;;;5076983;27;45543;-71
2023/12/22 03:15:35;;;;;;;;;0.00;0.00;;;;;;;;5077439;27;45405;-71
2023/12/22 03:18:01;;;;;;;;;0.67;0.00;;;;;;;;5076978;27;45516;-71
2023/12/22 03:20:26;;;;;;;;;1.00;0.00;;;;;;;;5077184;27;45496;-71
2023/12/22 03:22:51;;;;;;;;;0.00;0.00;;;;;;;;5077019;27;45188;-71
2023/12/22 03:25:17;;;;;;;;;0.00;0.00;;;;;;;;5077088;27;45314;-71
2023/12/22 03:27:42;;;;;;;;;0.00;0.00;;;;;;;;5080388;27;45519;-71
2023/12/22 03:30:08;;;;;;;;;0.33;0.00;;;;;;;;5079677;28;45506;-71
2023/12/22 03:32:33;;;;;;;;;0.00;0.00;;;;;;;;5080420;27;45471;-71
2023/12/22 03:34:58;;;;;;;;;0.00;0.00;;;;;;;;5080454;27;45223;-71
2023/12/22 03:37:24;;;;;;;;;1.00;0.00;;;;;;;;5080582;27;45439;-71
2023/12/22 03:39:49;;;;;;;;;0.00;0.00;;;;;;;;5080642;27;46405;-71
2023/12/22 03:42:14;;;;;;;;;0.00;0.00;;;;;;;;5080079;27;45374;-71
2023/12/22 03:44:40;;;;;;;;;2.00;1.00;;;;;;;;5080150;27;45394;-71
2023/12/22 03:47:05;;;;;;;;;0.00;0.00;;;;;;;;5080570;27;45312;-71
2023/12/22 03:49:30;;;;;;;;;1.00;1.00;;;;;;;;5080409;27;45453;-71
2023/12/22 03:51:56;;;;;;;;;0.67;0.00;;;;;;;;5079959;27;45484;-71
2023/12/22 03:54:21;;;;;;;;;0.33;0.00;;;;;;;;5079981;27;45498;-71
2023/12/22 03:56:46;;;;;;;;;1.67;0.00;;;;;;;;5080189;27;45507;-73
2023/12/22 03:59:13;;;;;;;;;0.00;0.00;;;;;;;;5080263;27;45334;-72
2023/12/22 04:01:38;;;;;;;;;0.00;0.00;;;;;;;;5080202;27;45386;-73
2023/12/22 04:04:04;;;;;;;;;0.67;0.00;;;;;;;;5079916;27;45312;-71
2023/12/22 04:06:29;;;;;;;;;0.00;0.00;;;;;;;;5080037;27;45563;-71
2023/12/22 04:08:54;;;;;;;;;0.00;0.00;;;;;;;;5080339;27;45473;-72
2023/12/22 04:11:20;;;;;;;;;0.33;0.00;;;;;;;;5079804;27;45953;-71
2023/12/22 04:13:45;;;;;;;;;0.00;0.00;;;;;;;;5079914;27;45218;-71
2023/12/22 04:16:10;;;;;;;;;1.67;0.00;;;;;;;;5080314;27;45469;-71
2023/12/22 04:18:36;;;;;;;;;0.00;0.00;;;;;;;;5079798;27;45410;-71
2023/12/22 04:21:01;;;;;;;;;0.00;0.00;;;;;;;;5079479;27;45451;-71
2023/12/22 04:23:26;;;;;;;;;0.00;0.00;;;;;;;;5079771;27;45463;-71
2023/12/22 04:25:52;;;;;;;;;0.00;0.00;;;;;;;;5079863;27;45392;-71
2023/12/22 04:28:17;;;;;;;;;0.33;0.00;;;;;;;;5079868;27;45491;-71
2023/12/22 04:30:43;;;;;;;;;0.00;0.00;;;;;;;;5079443;27;45486;-71
2023/12/22 04:33:08;;;;;;;;;0.00;0.00;;;;;;;;5079918;27;45478;-71
2023/12/22 04:35:33;;;;;;;;;0.00;0.00;;;;;;;;5079543;27;45415;-71
2023/12/22 04:37:59;;;;;;;;;0.00;0.00;;;;;;;;5079384;27;45228;-71
2023/12/22 04:40:24;;;;;;;;;0.00;0.00;;;;;;;;5079212;28;45456;-72
2023/12/22 04:42:50;;;;;;;;;0.00;0.00;;;;;;;;5079416;27;45246;-71
2023/12/22 04:45:17;;;;;;;;;0.00;0.00;;;;;;;;5079466;27;45437;-72
2023/12/22 04:47:42;;;;;;;;;0.00;0.00;;;;;;;;5079917;27;45381;-71
2023/12/22 04:50:07;;;;;;;;;0.00;0.00;;;;;;;;5078951;27;45978;-71
2023/12/22 04:52:33;;;;;;;;;0.00;0.00;;;;;;;;5079201;28;45349;-71
2023/12/22 04:54:58;;;;;;;;;0.00;0.00;;;;;;;;5079407;27;45604;-71
2023/12/22 04:57:24;;;;;;;;;0.00;0.00;;;;;;;;5095677;27;45883;-71
2023/12/22 04:59:49;;;;;;;;;0.00;0.00;;;;;;;;5098569;27;46215;-71
2023/12/22 05:02:14;;;;;;;;;0.00;0.00;;;;;;;;5098750;27;45461;-71
2023/12/22 05:04:40;;;;;;;;;0.00;0.00;;;;;;;;5098713;27;45631;-72
2023/12/22 05:07:06;;;;;;;;;0.00;0.00;;;;;;;;5098723;27;45480;-73
2023/12/22 05:09:33;;;;;;;;;0.00;0.00;;;;;;;;5098156;27;46186;-74
2023/12/22 05:11:58;;;;;;;;;0.00;0.00;;;;;;;;5098298;27;45472;-71
2023/12/22 05:14:23;;;;;;;;;0.00;0.00;;;;;;;;5098312;27;45377;-71
2023/12/22 05:16:49;;;;;;;;;0.00;0.00;;;;;;;;5098691;27;45628;-71
2023/12/22 05:19:15;;;;;;;;;0.00;0.00;;;;;;;;5098281;27;45988;-71
2023/12/22 05:21:41;;;;;;;;;0.00;0.00;;;;;;;;5098523;27;45450;-71
2023/12/22 05:24:06;;;;;;;;;0.00;0.00;;;;;;;;5098440;27;45481;-71
2023/12/22 05:26:32;;;;;;;;;0.00;0.00;;;;;;;;5098538;27;45473;-71
2023/12/22 05:28:57;;;;;;;;;0.00;0.00;;;;;;;;5098097;27;45929;-71
2023/12/22 05:31:23;;;;;;;;;0.00;0.00;;;;;;;;5098089;27;45428;-71
2023/12/22 05:33:48;;;;;;;;;0.00;0.00;;;;;;;;5098351;27;45244;-72
2023/12/22 05:36:13;;;;;;;;;0.00;0.00;;;;;;;;5098725;27;45447;-73
2023/12/22 05:38:39;;;;;;;;;0.00;0.00;;;;;;;;5097784;27;45328;-72
2023/12/22 05:41:06;;;;;;;;;0.00;0.00;;;;;;;;5097931;27;45467;-73
2023/12/22 05:43:31;;;;;;;;;0.00;0.00;;;;;;;;5098144;27;45409;-71
2023/12/22 05:45:57;;;;;;;;;0.00;0.00;;;;;;;;5098441;27;45424;-72
2023/12/22 05:48:22;;;;;;;;;0.00;0.00;;;;;;;;5097218;27;46080;-72
2023/12/22 05:50:48;;;;;;;;;0.00;0.00;;;;;;;;5097574;27;45563;-73
2023/12/22 05:53:13;;;;;;;;;0.00;0.00;;;;;;;;5096718;27;45484;-74
2023/12/22 05:55:38;;;;;;;;;0.00;0.00;;;;;;;;5097801;27;45659;-74
2023/12/22 05:58:04;;;;;;;;;0.00;0.00;;;;;;;;5097553;27;45431;-74
2023/12/22 06:00:29;;;;;;;;;0.67;0.00;;;;;;;;5097695;27;45306;-73
2023/12/22 06:02:55;;;;;;;;;0.00;0.00;;;;;;;;5097802;27;45322;-73
2023/12/22 06:05:21;;;;;;;;;0.00;0.00;;;;;;;;5097991;27;45474;-71
2023/12/22 06:07:46;;;;;;;;;0.00;0.00;;;;;;;;5097731;27;45393;-72
2023/12/22 06:10:11;;;;;;;;;0.00;0.00;;;;;;;;5097537;27;45469;-71
2023/12/22 06:12:37;;;;;;;;;0.67;0.00;;;;;;;;5097624;27;45296;-71
2023/12/22 06:15:02;;;;;;;;;0.00;0.00;;;;;;;;5097668;27;45602;-72
2023/12/22 06:17:28;;;;;;;;;0.00;0.00;;;;;;;;5097207;27;45557;-71
2023/12/22 06:19:53;;;;;;;;;0.00;0.00;;;;;;;;5097390;27;45500;-71
2023/12/22 06:22:18;;;;;;;;;0.00;0.00;;;;;;;;5097456;27;45531;-72
2023/12/22 06:24:44;;;;;;;;;0.00;0.00;;;;;;;;5097766;27;45483;-73
2023/12/22 06:27:10;;;;;;;;;1.00;0.00;;;;;;;;5097074;27;45437;-74
2023/12/22 06:29:35;;;;;;;;;0.00;0.00;;;;;;;;5097164;27;45614;-74
2023/12/22 06:32:00;;;;;;;;;1.00;0.00;;;;;;;;5097077;27;45416;-72
2023/12/22 06:34:26;;;;;;;;;0.00;0.00;;;;;;;;5097377;27;45384;-72
2023/12/22 06:36:51;;;;;;;;;0.00;0.00;;;;;;;;5097308;27;45521;-71
2023/12/22 06:39:17;;;;;;;;;0.00;0.00;;;;;;;;5098212;27;45235;-72
2023/12/22 06:41:42;;;;;;;;;0.00;0.00;;;;;;;;5098102;27;45372;-72
2023/12/22 06:44:07;;;;;;;;;0.00;0.00;;;;;;;;5098187;27;45475;-71
2023/12/22 06:46:33;;;;;;;;;4.00;4.00;;;;;;;;5097526;27;45253;-71
2023/12/22 06:48:59;;;;;;;;;0.67;0.33;;;;;;;;5097780;27;45251;-72
2023/12/22 06:51:26;;;;;;;;;0.00;0.00;;;;;;;;5097726;27;45724;-72
2023/12/22 06:53:51;;;;;;;;;2.00;1.00;;;;;;;;5097885;27;45393;-72
2023/12/22 06:56:17;;;;;;;;;0.67;0.00;;;;;;;;5097905;27;46060;-72
2023/12/22 06:58:43;;;;;;;;;0.00;0.00;;;;;;;;5096429;27;45324;-72
2023/12/22 07:01:08;;;;;;;;;0.00;0.00;;;;;;;;5098808;27;45208;-71
2023/12/22 07:03:34;;;;;;;;;1.00;1.00;;;;;;;;5101505;27;45428;-71
2023/12/22 07:05:59;;;;;;;;;1.00;0.00;;;;;;;;5101207;27;45418;-71
2023/12/22 07:08:25;;;;;;;;;6.00;5.00;;;;;;;;5101166;27;45475;-72
2023/12/22 07:10:50;;;;;;;;;3.00;1.00;;;;;;;;5100548;27;45523;-72
2023/12/22 07:13:16;;;;;;;;;1.33;1.33;;;;;;;;5101718;27;45471;-71
2023/12/22 07:15:41;;;;;;;;;3.33;3.00;;;;;;;;5101033;27;46069;-71
2023/12/22 07:18:06;;;;;;;;;0.00;0.00;;;;;;;;5100922;27;45164;-72
2023/12/22 07:20:32;;;;;;;;;0.00;0.00;;;;;;;;5101214;27;45397;-72
2023/12/22 07:22:57;;;;;;;;;0.33;0.00;;;;;;;;5101493;27;45206;-72
2023/12/22 07:25:22;;;;;;;;;0.00;0.00;;;;;;;;5100930;27;45884;-72
2023/12/22 07:27:48;;;;;;;;;2.00;2.00;;;;;;;;5101169;27;45336;-72
2023/12/22 07:30:15;;;;;;;;;3.33;2.00;;;;;;;;5100946;27;45437;-72
2023/12/22 07:32:42;;;;;;;;;1.00;1.00;;;;;;;;5100826;27;45520;-72
2023/12/22 07:35:07;;;;;;;;;0.00;0.00;;;;;;;;5100811;27;46290;-71
2023/12/22 07:37:35;;;;;;;;;2.67;2.00;;;;;;;;5100597;27;45565;-72
2023/12/22 07:40:00;;;;;;;;;1.00;0.67;;;;;;;;5100726;27;45409;-71
2023/12/22 07:42:25;;;;;;;;;0.00;0.00;;;;;;;;5100858;27;45324;-72
2023/12/22 07:44:51;;;;;;;;;4.33;4.00;;;;;;;;5100928;27;46214;-71
2023/12/22 07:47:16;;;;;;;;;0.00;0.00;;;;;;;;5100669;27;45405;-72
2023/12/22 07:49:42;;;;;;;;;0.00;0.00;;;;;;;;5100715;27;45424;-72
2023/12/22 07:52:07;;;;;;;;;1.00;0.00;;;;;;;;5100901;27;45356;-72
2023/12/22 07:54:33;;;;;;;;;1.00;0.00;;;;;;;;5099528;27;45568;-73
2023/12/22 07:56:58;;;;;;;;;3.00;3.00;;;;;;;;5099760;27;45318;-72
2023/12/22 07:59:24;;;;;;;;;2.00;2.00;;;;;;;;5099712;27;45531;-72
2023/12/22 08:01:49;;;;;;;;;3.33;3.33;;;;;;;;5098854;27;45333;-73
2023/12/22 08:04:15;;;;;;;;;0.00;0.00;;;;;;;;5098199;27;45407;-73
2023/12/22 08:06:40;;;;;;;;;0.00;0.00;;;;;;;;5098369;27;45294;-72
2023/12/22 08:09:06;;;;;;;;;0.00;0.00;;;;;;;;5098683;27;45241;-73
2023/12/22 08:11:31;;;;;;;;;0.00;0.00;;;;;;;;5098189;27;45250;-72
2023/12/22 08:13:56;;;;;;;;;0.00;0.00;;;;;;;;5098126;27;46042;-72
2023/12/22 08:16:22;;;;;;;;;4.33;4.33;;;;;;;;5098339;27;45541;-73
2023/12/22 08:18:48;;;;;;;;;0.00;0.00;;;;;;;;5098512;27;45221;-73
2023/12/22 08:21:13;;;;;;;;;1.00;0.00;;;;;;;;5098686;27;45297;-71
2023/12/22 08:23:39;;;;;;;;;0.67;0.00;;;;;;;;5097426;27;45428;-73
2023/12/22 08:26:04;;;;;;;;;0.00;0.00;;;;;;;;5098678;27;45320;-73
2023/12/22 08:28:30;;;;;;;;;2.33;2.00;;;;;;;;5098955;27;45237;-73
2023/12/22 08:30:55;;;;;;;;;1.00;0.33;;;;;;;;5099391;27;45419;-71
2023/12/22 08:33:20;;;;;;;;;1.00;0.00;;;;;;;;5098856;27;45574;-72
2023/12/22 08:35:46;;;;;;;;;1.00;0.00;;;;;;;;5098655;27;45681;-72
2023/12/22 08:38:13;;;;;;;;;1.00;0.00;;;;;;;;5098431;27;45354;-75
2023/12/22 08:40:38;;;;;;;;;1.33;1.33;;;;;;;;5098761;27;45299;-72
2023/12/22 08:43:06;;;;;;;;;0.00;0.00;;;;;;;;5098258;27;46172;-71
2023/12/22 08:45:31;;;;;;;;;2.00;1.00;;;;;;;;5098247;27;45251;-73
2023/12/22 08:47:57;;;;;;;;;0.00;0.00;;;;;;;;5098441;27;45541;-73
2023/12/22 08:50:22;;;;;;;;;0.00;0.00;;;;;;;;5098877;27;45321;-73
2023/12/22 08:52:47;;;;;;;;;0.00;0.00;;;;;;;;5049488;27;1375371;-72
2023/12/22 08:55:13;;;;;;;;;0.00;0.00;;;;;;;;5099331;27;45481;-71
2023/12/22 08:57:39;;;;;;;;;0.00;0.00;;;;;;;;5099200;27;45622;-74
2023/12/22 09:00:05;;;;;;;;;1.00;0.00;;;;;;;;5099540;27;45330;-77
2023/12/22 09:02:30;;;;;;;;;0.00;0.00;;;;;;;;5099295;27;45216;-72
2023/12/22 09:04:55;;;;;;;;;1.00;0.00;;;;;;;;5099615;27;45581;-72
2023/12/22 09:07:22;;;;;;;;;0.00;0.00;;;;;;;;5099501;27;45618;-80
2023/12/22 09:09:47;;;;;;;;;0.00;0.00;;;;;;;;5099828;27;45786;-77
2023/12/22 09:12:13;;;;;;;;;1.00;1.00;;;;;;;;5099089;27;45294;-82
2023/12/22 09:14:38;;;;;;;;;0.00;0.00;;;;;;;;5099121;27;45593;-74
2023/12/22 09:17:03;;;;;;;;;1.00;0.00;;;;;;;;5099359;27;45444;-74
2023/12/22 09:19:31;;;;;;;;;0.00;0.00;;;;;;;;5098879;27;45443;-71
2023/12/22 09:21:57;;;;;;;;;2.00;2.00;;;;;;;;5098770;27;46177;-84
2023/12/22 09:24:22;;;;;;;;;2.00;1.00;;;;;;;;5097851;27;45305;-82
2023/12/22 09:26:47;;;;;;;;;0.00;0.00;;;;;;;;5098992;27;45326;-78
2023/12/22 09:29:13;;;;;;;;;0.00;0.00;;;;;;;;5099068;27;45511;-77
2023/12/22 09:31:38;;;;;;;;;0.00;0.00;;;;;;;;5098750;27;45383;-80
2023/12/22 09:34:03;;;;;;;;;0.00;0.00;;;;;;;;5098763;27;45512;-71
2023/12/22 09:36:29;;;;;;;;;0.00;0.00;;;;;;;;5099013;27;45439;-71
2023/12/22 09:38:54;;;;;;;;;0.00;0.00;;;;;;;;5099156;27;45390;-71
2023/12/22 09:41:20;;;;;;;;;0.00;0.00;;;;;;;;5098373;27;45271;-79
2023/12/22 09:43:48;;;;;;;;;0.00;0.00;;;;;;;;5098681;27;45316;-72
2023/12/22 09:46:14;;;;;;;;;2.67;2.00;;;;;;;;5098829;27;45455;-81
2023/12/22 09:48:40;;;;;;;;;2.67;1.67;;;;;;;;5098755;27;45644;-80
2023/12/22 09:51:06;;;;;;;;;2.00;2.00;;;;;;;;5098544;27;45880;-78
2023/12/22 09:53:33;;;;;;;;;1.00;1.00;;;;;;;;5098142;27;45522;-72
2023/12/22 09:55:59;;;;;;;;;0.00;0.00;;;;;;;;5098723;27;45283;-71
2023/12/22 09:58:25;;;;;;;;;0.00;0.00;;;;;;;;5098419;27;46248;-71
2023/12/22 10:00:51;;;;;;;;;0.00;0.00;;;;;;;;5098149;27;46006;-73
2023/12/22 10:03:18;;;;;;;;;1.00;0.00;;;;;;;;5098217;27;45577;-73
2023/12/22 10:05:44;;;;;;;;;1.67;1.00;;;;;;;;5098277;27;45266;-76
2023/12/22 10:08:12;;;;;;;;;2.00;1.00;;;;;;;;5097981;27;45463;-72
2023/12/22 10:10:41;;;;;;;;;3.00;3.00;;;;;;;;5097912;27;46063;-72
2023/12/22 10:13:09;;;;;;;;;1.33;1.33;;;;;;;;5097952;27;45458;-75
2023/12/22 10:15:45;;;;;;;;;0.00;0.00;;;;;;;;5097838;27;45715;-72
2023/12/22 10:18:10;;;;;;;;;14.25;12.50;;;;;;;;5098265;27;45332;-72
2023/12/22 10:20:36;;;;;;;;;3.67;3.00;;;;;;;;5098140;27;45501;-72
2023/12/22 10:23:01;;;;;;;;;1.00;1.00;;;;;;;;5098217;27;45797;-72
2023/12/22 10:25:29;;;;;;;;;7.67;7.00;;;;;;;;5097177;27;45539;-73
2023/12/22 10:27:54;;;;;;;;;12.50;9.50;;;;;;;;5097837;27;45441;-75
2023/12/22 10:30:20;;;;;;;;;16.50;15.00;;;;;;;;5097244;27;46010;-76
2023/12/22 10:32:45;;;;;;;;;6.00;5.00;;;;;;;;5097293;27;45523;-72
2023/12/22 10:35:10;;;;;;;;;9.00;5.00;;;;;;;;5097407;27;45254;-72
2023/12/22 10:37:37;;;;;;;;;3.00;1.67;;;;;;;;5098193;27;45388;-72
2023/12/22 10:40:06;;;;;;;;;13.00;11.00;;;;;;;;5097465;27;45417;-72
2023/12/22 10:42:32;;;;;;;;;8.67;7.00;;;;;;;;5076737;27;45405;-72
2023/12/22 10:44:57;;;;;;;;;1.00;0.67;;;;;;;;5077087;27;45424;-72
2023/12/22 10:47:22;;;;;;;;;1.00;0.00;;;;;;;;5077736;27;45460;-72
2023/12/22 10:49:48;;;;;;;;;1.00;1.00;;;;;;;;5077184;27;45474;-72
2023/12/22 10:52:26;;;;;;;;;0.00;0.00;;;;;;;;5077230;27;45690;-72
2023/12/22 10:54:51;;;;;;;;;1.67;1.00;;;;;;;;5077288;27;45428;-72
2023/12/22 10:57:17;;;;;;;;;1.00;1.00;;;;;;;;5077450;27;45440;-71
2023/12/22 10:59:46;;;;;;;;;0.33;0.33;;;;;;;;5077125;28;46130;-72
2023/12/22 11:02:16;;;;;;;;;0.00;0.00;;;;;;;;5077047;27;45332;-71
2023/12/22 11:04:45;;;;;;;;;0.00;0.00;;;;;;;;5077182;27;45376;-71
2023/12/22 11:07:11;;;;;;;;;5.00;4.00;;;;;;;;5077200;27;45334;-72
2023/12/22 11:09:38;;;;;;;;;7.33;7.00;;;;;;;;5076742;27;45302;-72
2023/12/22 11:12:04;;;;;;;;;2.00;2.00;;;;;;;;5077259;28;45514;-75
2023/12/22 11:14:31;;;;;;;;;0.00;0.00;;;;;;;;5077229;27;45450;-71
2023/12/22 11:16:58;;;;;;;;;7.33;6.67;;;;;;;;5077091;27;45500;-72
2023/12/22 11:19:25;;;;;;;;;14.75;12.75;;;;;;;;5076618;27;46146;-72
2023/12/22 11:21:51;;;;;;;;;1.00;1.00;;;;;;;;5076671;27;45604;-71
2023/12/22 11:24:16;;;;;;;;;6.33;5.33;;;;;;;;5076896;27;45286;-72
2023/12/22 11:26:42;;;;;;;;;15.33;13.33;;;;;;;;5077081;27;45464;-72
2023/12/22 11:29:09;;;;;;;;;4.00;2.67;;;;;;;;5076686;27;46270;-72
2023/12/22 11:31:36;;;;;;;;;2.00;1.00;;;;;;;;5077079;28;45286;-72
2023/12/22 11:34:02;;;;;;;;;1.00;0.00;;;;;;;;5077052;27;45721;-72
2023/12/22 11:36:29;;;;;;;;;0.00;0.00;;;;;;;;5086048;27;45483;-76
2023/12/22 11:38:55;;;;;;;;;0.00;0.00;;;;;;;;5096931;27;46158;-72
2023/12/22 11:41:23;;;;;;;;;0.00;0.00;;;;;;;;5097055;27;45551;-72
2023/12/22 11:43:49;;;;;;;;;2.00;1.00;;;;;;;;5097298;27;45301;-72
2023/12/22 11:46:16;;;;;;;;;0.00;0.00;;;;;;;;5097140;27;45395;-72
2023/12/22 11:48:48;;;;;;;;;0.00;0.00;;;;;;;;5099964;27;46066;-73
2023/12/22 11:51:15;;;;;;;;;10.00;9.67;;;;;;;;5100136;27;45430;-75
2023/12/22 11:53:43;;;;;;;;;1.00;1.00;;;;;;;;5100159;27;45452;-74
2023/12/22 11:56:12;;;;;;;;;3.00;2.00;;;;;;;;5100328;27;45177;-74
2023/12/22 11:59:01;;;;;;;;;3.00;3.00;;;;;;;;5099909;27;46107;-72
2023/12/22 12:01:31;;;;;;;;;1.00;1.00;;;;;;;;5100015;27;45351;-72
2023/12/22 12:04:01;;;;;;;;;1.33;1.33;;;;;;;;5100234;27;45392;-72
2023/12/22 12:06:27;;;;;;;;;9.00;7.00;;;;;;;;5100169;27;45475;-72
2023/12/22 12:08:53;;;;;;;;;11.67;10.33;;;;;;;;5098600;27;46200;-77
2023/12/22 12:11:19;;;;;;;;;1.00;1.00;;;;;;;;5100333;27;45275;-72
2023/12/22 12:13:45;;;;;;;;;1.00;1.00;;;;;;;;5099859;27;45417;-78
2023/12/22 12:16:15;;;;;;;;;0.00;0.00;;;;;;;;5099831;27;45500;-71
2023/12/22 12:18:40;;;;;;;;;0.00;0.00;;;;;;;;5099609;27;45316;-71
2023/12/22 12:21:06;;;;;;;;;0.00;0.00;;;;;;;;5100392;27;45576;-71
2023/12/22 12:23:31;;;;;;;;;0.00;0.00;;;;;;;;5100201;27;45214;-71
2023/12/22 12:25:57;;;;;;;;;1.67;1.67;;;;;;;;5100206;27;45543;-71
2023/12/22 12:28:27;;;;;;;;;3.00;1.00;;;;;;;;5099442;27;45833;-72
2023/12/22 12:31:03;;;;;;;;;2.00;2.00;;;;;;;;5099932;27;45456;-72
2023/12/22 12:33:29;;;;;;;;;1.33;1.33;;;;;;;;5100079;27;45262;-72
2023/12/22 12:35:56;;;;;;;;;3.00;1.00;;;;;;;;5100061;27;45496;-71
2023/12/22 12:38:23;;;;;;;;;0.67;0.00;;;;;;;;5098159;27;46285;-71
2023/12/22 12:40:50;;;;;;;;;1.00;0.00;;;;;;;;5099764;27;45530;-71
2023/12/22 12:43:16;;;;;;;;;1.00;0.00;;;;;;;;5099858;27;45325;-72
2023/12/22 12:45:42;;;;;;;;;0.00;0.00;;;;;;;;5099923;27;45549;-72
2023/12/22 12:48:07;;;;;;;;;0.67;0.00;;;;;;;;5099878;27;45217;-71
2023/12/22 12:50:33;;;;;;;;;0.00;0.00;;;;;;;;5099734;27;45542;-72
2023/12/22 12:52:59;;;;;;;;;0.00;0.00;;;;;;;;5099704;27;45524;-71
2023/12/22 12:55:25;;;;;;;;;6.00;4.67;;;;;;;;5099744;27;45399;-71
2023/12/22 12:57:54;;;;;;;;;0.33;0.00;;;;;;;;5098833;27;45514;-72
2023/12/22 13:00:29;;;;;;;;;0.00;0.00;;;;;;;;5098501;27;45451;-72
2023/12/22 13:02:55;;;;;;;;;0.00;0.00;;;;;;;;5099500;27;45473;-72
2023/12/22 13:05:22;;;;;;;;;0.00;0.00;;;;;;;;5099471;27;45345;-71
2023/12/22 13:07:47;;;;;;;;;0.00;0.00;;;;;;;;5099155;27;45502;-72
2023/12/22 13:10:23;;;;;;;;;0.00;0.00;;;;;;;;5099200;27;45423;-72
2023/12/22 13:12:50;;;;;;;;;0.00;0.00;;;;;;;;5099397;27;45306;-73
2023/12/22 13:15:16;;;;;;;;;0.00;0.00;;;;;;;;5099238;27;45397;-72
2023/12/22 13:17:41;;;;;;;;;0.00;0.00;;;;;;;;5098879;27;46096;-73
2023/12/22 13:20:07;;;;;;;;;0.00;0.00;;;;;;;;5099209;27;45428;-72
2023/12/22 13:22:33;;;;;;;;;0.00;0.00;;;;;;;;5099141;27;45354;-72
2023/12/22 13:24:59;;;;;;;;;0.00;0.00;;;;;;;;5099372;27;45499;-72
2023/12/22 13:27:24;;;;;;;;;0.00;0.00;;;;;;;;5098974;27;45974;-71
2023/12/22 13:29:52;;;;;;;;;0.00;0.00;;;;;;;;5098963;27;45286;-72
2023/12/22 13:32:18;;;;;;;;;0.00;0.00;;;;;;;;5099166;27;45413;-71
2023/12/22 13:34:53;;;;;;;;;0.00;0.00;;;;;;;;5098990;27;45225;-72
2023/12/22 13:37:19;;;;;;;;;0.00;0.00;;;;;;;;5098482;27;45493;-71
2023/12/22 13:39:45;;;;;;;;;0.00;0.00;;;;;;;;5098676;27;46206;-72
2023/12/22 13:42:15;;;;;;;;;1.00;0.00;;;;;;;;5099229;27;45289;-72
2023/12/22 13:44:44;;;;;;;;;0.00;0.00;;;;;;;;5099185;27;45366;-71
2023/12/22 13:47:09;;;;;;;;;3.00;1.00;;;;;;;;5098780;27;45401;-71
2023/12/22 13:49:35;;;;;;;;;0.33;0.00;;;;;;;;5098270;27;45447;-72
2023/12/22 13:52:06;;;;;;;;;0.00;0.00;;;;;;;;5098765;27;45474;-73
2023/12/22 13:54:32;;;;;;;;;0.33;0.00;;;;;;;;5098649;27;45456;-71
2023/12/22 13:56:57;;;;;;;;;2.00;1.00;;;;;;;;5098105;27;46188;-72
2023/12/22 13:59:33;;;;;;;;;3.00;3.00;;;;;;;;5098101;27;45421;-71
2023/12/22 14:01:58;;;;;;;;;7.67;7.00;;;;;;;;5098229;27;45401;-71
2023/12/22 14:04:24;;;;;;;;;6.00;4.67;;;;;;;;5098435;27;45600;-72
2023/12/22 14:06:49;;;;;;;;;1.00;1.00;;;;;;;;5098316;27;45880;-72
2023/12/22 14:09:17;;;;;;;;;3.00;3.00;;;;;;;;5098285;27;45343;-71
2023/12/22 14:11:43;;;;;;;;;1.00;1.00;;;;;;;;5098468;27;45514;-72
2023/12/22 14:14:08;;;;;;;;;1.00;1.00;;;;;;;;5098447;27;45279;-72
2023/12/22 14:16:33;;;;;;;;;0.00;0.00;;;;;;;;5098143;27;45248;-72
2023/12/22 14:18:59;;;;;;;;;0.33;0.00;;;;;;;;5098060;27;45334;-72
2023/12/22 14:21:24;;;;;;;;;0.00;0.00;;;;;;;;5098311;27;45412;-71
2023/12/22 14:23:50;;;;;;;;;0.00;0.00;;;;;;;;5098465;27;45405;-72
2023/12/22 14:26:16;;;;;;;;;0.00;0.00;;;;;;;;5098144;27;45479;-71
2023/12/22 14:28:42;;;;;;;;;0.00;0.00;;;;;;;;5098011;27;45276;-72
2023/12/22 14:31:07;;;;;;;;;0.33;0.00;;;;;;;;5097975;27;45475;-71
2023/12/22 14:33:32;;;;;;;;;2.67;2.67;;;;;;;;5098179;27;45399;-71
2023/12/22 14:35:58;;;;;;;;;2.00;2.00;;;;;;;;5098050;27;45347;-71